Time;durP1;ratioP1;P1;durP2;ratioP2;P2;SDS_P1;SDS_P2;PMS_P1;PMS_P2;Temp;Humidity;BMP_temperature;BMP_pressure;BME280_temperature;BME280_humidity;BME280_pressure;Samples;Min_cycle;Max_cycle;Signal;HPM_P1;HPM_P2
2021/03/05 00:00:12;;;;;;;5.90;3.90;;;1.10;79.10;;;;;;4382193;32;20083;-58
2021/03/05 00:02:38;;;;;;;6.00;4.37;;;1.10;79.10;;;;;;4390993;32;20105;-59
2021/03/05 00:05:07;;;;;;;6.00;4.50;;;1.00;79.80;;;;;;4367527;32;20097;-59
2021/03/05 00:07:33;;;;;;;5.05;3.92;;;0.90;80.40;;;;;;4392278;32;20074;-59
2021/03/05 00:09:59;;;;;;;5.62;3.85;;;0.90;80.90;;;;;;4394074;32;20186;-58
2021/03/05 00:12:25;;;;;;;4.95;3.45;;;0.90;80.90;;;;;;4393879;32;20078;-58
2021/03/05 00:14:51;;;;;;;6.03;3.80;;;0.90;80.90;;;;;;4393525;32;20501;-59
2021/03/05 00:17:18;;;;;;;5.03;3.80;;;1.00;80.50;;;;;;4394148;32;20101;-58
2021/03/05 00:19:44;;;;;;;7.03;4.35;;;1.00;80.50;;;;;;4394639;32;20068;-58
2021/03/05 00:22:11;;;;;;;5.37;3.80;;;0.90;80.80;;;;;;4382016;32;20069;-59
2021/03/05 00:24:38;;;;;;;6.93;4.28;;;0.90;81.10;;;;;;4394712;32;20081;-58
2021/03/05 00:27:04;;;;;;;7.30;3.80;;;0.90;81.10;;;;;;4365321;32;20504;-59
2021/03/05 00:29:31;;;;;;;5.37;3.80;;;0.90;81.20;;;;;;4366722;32;20556;-58
2021/03/05 00:31:57;;;;;;;6.18;4.05;;;0.90;80.90;;;;;;4391614;32;20077;-61
2021/03/05 00:34:23;;;;;;;6.00;3.78;;;0.90;80.80;;;;;;4381136;32;20164;-59
2021/03/05 00:36:49;;;;;;;5.90;4.05;;;0.90;81.00;;;;;;4394482;32;20064;-58
2021/03/05 00:39:16;;;;;;;6.43;4.03;;;0.90;80.90;;;;;;4407159;32;20507;-59
2021/03/05 00:41:42;;;;;;;7.32;4.30;;;0.90;81.00;;;;;;4394587;32;20101;-59
2021/03/05 00:44:08;;;;;;;4.68;3.65;;;0.80;81.50;;;;;;4406958;32;20085;-58
2021/03/05 00:46:34;;;;;;;6.12;3.92;;;0.80;81.70;;;;;;4408496;32;20080;-59
2021/03/05 00:49:01;;;;;;;5.78;4.10;;;0.80;81.60;;;;;;4392793;32;20070;-60
2021/03/05 00:51:27;;;;;;;6.12;4.00;;;0.80;81.70;;;;;;4379426;32;20089;-58
2021/03/05 00:53:53;;;;;;;6.40;4.18;;;0.80;81.80;;;;;;4391639;32;20082;-58
2021/03/05 00:56:19;;;;;;;7.15;4.78;;;0.80;81.80;;;;;;4393188;32;20081;-59
2021/03/05 00:58:46;;;;;;;6.30;3.95;;;0.80;82.00;;;;;;4393151;32;20134;-58
2021/03/05 01:01:12;;;;;;;5.95;4.47;;;0.80;81.90;;;;;;4391579;32;20065;-59
2021/03/05 01:03:38;;;;;;;7.03;4.53;;;0.70;82.20;;;;;;4378720;32;20085;-58
2021/03/05 01:06:05;;;;;;;6.80;4.78;;;0.80;82.20;;;;;;4391555;32;20073;-58
2021/03/05 01:11:11;;;;;;;6.00;4.12;;;0.80;82.00;;;;;;3857443;37;20069;-59
2021/03/05 01:13:37;;;;;;;7.10;4.45;;;0.80;82.00;;;;;;4406599;32;20069;-58
2021/03/05 01:16:04;;;;;;;6.45;4.20;;;0.80;81.80;;;;;;4396724;32;20156;-58
2021/03/05 01:18:30;;;;;;;6.68;4.30;;;0.90;81.60;;;;;;4385494;32;20109;-58
2021/03/05 01:20:57;;;;;;;6.22;4.53;;;0.80;81.60;;;;;;4406508;32;20081;-59
2021/03/05 01:23:23;;;;;;;6.22;4.60;;;0.90;81.70;;;;;;4366693;32;20173;-59
2021/03/05 01:25:49;;;;;;;6.70;4.60;;;0.90;81.80;;;;;;4403333;32;20095;-58
2021/03/05 01:28:15;;;;;;;6.10;4.60;;;0.90;81.90;;;;;;4391505;32;20081;-58
2021/03/05 01:30:41;;;;;;;6.55;4.47;;;0.80;82.10;;;;;;4411150;32;20081;-58
2021/03/05 01:33:08;;;;;;;6.47;4.30;;;0.70;82.50;;;;;;4375106;32;20070;-59
2021/03/05 01:35:34;;;;;;;6.20;4.18;;;0.80;82.60;;;;;;4375508;32;20084;-58
2021/03/05 01:38:00;;;;;;;8.23;4.25;;;0.70;82.90;;;;;;4385525;32;20089;-59
2021/03/05 01:40:34;;;;;;;6.90;4.45;;;0.70;82.90;;;;;;4377794;32;20173;-58
2021/03/05 01:43:01;;;;;;;7.43;4.45;;;0.80;83.00;;;;;;4379913;32;20062;-62
2021/03/05 01:45:30;;;;;;;6.28;4.10;;;0.70;83.30;;;;;;4368512;32;20066;-58
2021/03/05 01:47:59;;;;;;;7.03;4.68;;;0.70;83.70;;;;;;4392238;32;20075;-58
2021/03/05 01:50:33;;;;;;;6.37;4.47;;;0.70;83.70;;;;;;4393436;32;20502;-62
2021/03/05 01:53:04;;;;;;;6.35;4.70;;;0.70;83.60;;;;;;4380212;32;20066;-60
2021/03/05 01:55:31;;;;;;;7.28;5.03;;;0.80;83.30;;;;;;4363988;32;20061;-58
2021/03/05 01:57:57;;;;;;;7.05;4.57;;;0.70;83.80;;;;;;4388483;32;20082;-60
2021/03/05 02:00:37;;;;;;;7.30;5.20;;;0.70;84.00;;;;;;4363147;32;20066;-58
2021/03/05 02:03:04;;;;;;;6.50;4.68;;;0.70;84.00;;;;;;4370799;32;20070;-60
2021/03/05 02:05:30;;;;;;;6.78;4.57;;;0.80;84.10;;;;;;4366092;32;20073;-59
2021/03/05 02:07:56;;;;;;;7.47;4.57;;;0.80;85.30;;;;;;4362498;32;20059;-58
2021/03/05 02:10:23;;;;;;;6.85;4.47;;;0.70;85.50;;;;;;4374328;32;20095;-58
2021/03/05 02:12:49;;;;;;;7.87;4.90;;;0.80;84.70;;;;;;4387505;32;20067;-58
2021/03/05 02:15:16;;;;;;;7.62;5.10;;;0.80;84.50;;;;;;4374576;32;20076;-58
2021/03/05 02:18:23;;;;;;;7.70;4.80;;;0.70;84.70;;;;;;4364087;32;20512;-59
2021/03/05 02:21:08;;;;;;;7.75;4.70;;;0.80;85.50;;;;;;4370200;32;20542;-59
2021/03/05 02:24:32;;;;;;;8.90;4.90;;;0.70;85.70;;;;;;4376941;32;20077;-59
2021/03/05 02:27:30;;;;;;;6.25;4.32;;;0.70;85.50;;;;;;4340686;32;20073;-58
2021/03/05 02:30:33;;;;;;;6.55;4.68;;;0.70;86.00;;;;;;4364407;32;20072;-58
2021/03/05 02:33:20;;;;;;;7.95;4.28;;;0.70;86.60;;;;;;4376263;32;20063;-58
2021/03/05 02:35:47;;;;;;;8.13;5.28;;;0.60;87.20;;;;;;4354027;32;20081;-58
2021/03/05 02:38:13;;;;;;;7.62;4.65;;;0.60;88.20;;;;;;4360473;32;20562;-58
2021/03/05 02:40:43;;;;;;;6.68;4.22;;;0.60;88.20;;;;;;4352532;32;20089;-59
2021/03/05 02:43:23;;;;;;;6.50;4.25;;;0.60;88.30;;;;;;4364626;32;20522;-58
2021/03/05 02:45:56;;;;;;;7.15;4.35;;;0.60;88.60;;;;;;4351869;32;20071;-58
2021/03/05 02:48:25;;;;;;;7.18;5.03;;;0.50;88.80;;;;;;4373406;32;20085;-58
2021/03/05 02:50:54;;;;;;;8.00;5.15;;;0.50;89.30;;;;;;4354769;32;20165;-58
2021/03/05 02:53:23;;;;;;;6.32;4.32;;;0.40;89.50;;;;;;4346823;32;20231;-58
2021/03/05 02:55:54;;;;;;;7.47;4.82;;;0.50;89.70;;;;;;4376556;32;20241;-59
2021/03/05 02:58:22;;;;;;;6.53;4.57;;;0.50;89.90;;;;;;4364086;32;20090;-59
2021/03/05 03:00:48;;;;;;;9.05;4.68;;;0.50;90.10;;;;;;4364549;32;20150;-59
2021/03/05 03:03:14;;;;;;;8.05;4.93;;;0.50;89.90;;;;;;4375978;32;20080;-59
2021/03/05 03:05:41;;;;;;;9.35;4.80;;;0.50;90.30;;;;;;4364157;32;20539;-58
2021/03/05 03:08:07;;;;;;;7.75;4.53;;;0.50;90.50;;;;;;4351662;32;20086;-57
2021/03/05 03:10:34;;;;;;;9.82;5.55;;;0.50;90.30;;;;;;4339234;32;20075;-58
2021/03/05 03:13:01;;;;;;;8.18;4.87;;;0.50;90.30;;;;;;4339069;32;20524;-58
2021/03/05 03:15:30;;;;;;;8.30;5.12;;;0.50;90.50;;;;;;4341523;32;20537;-57
2021/03/05 03:18:00;;;;;;;7.12;4.60;;;0.50;90.40;;;;;;4359939;32;20081;-58
2021/03/05 03:20:27;;;;;;;7.43;4.70;;;0.50;90.60;;;;;;4356896;32;20070;-58
2021/03/05 03:22:53;;;;;;;6.87;4.65;;;0.40;90.80;;;;;;4352555;32;20057;-58
2021/03/05 03:25:21;;;;;;;8.52;4.97;;;0.50;90.70;;;;;;4351364;32;20096;-59
2021/03/05 03:27:47;;;;;;;8.77;5.25;;;0.50;90.90;;;;;;4357946;32;20171;-59
2021/03/05 03:30:17;;;;;;;7.78;4.90;;;0.50;90.60;;;;;;4376168;32;20157;-59
2021/03/05 03:32:44;;;;;;;8.38;5.15;;;0.50;91.40;;;;;;4373406;32;20074;-59
2021/03/05 03:35:12;;;;;;;8.23;4.78;;;0.50;91.00;;;;;;4338843;32;20143;-58
2021/03/05 03:37:38;;;;;;;7.80;4.95;;;0.60;90.70;;;;;;4356259;32;20074;-58
2021/03/05 03:40:09;;;;;;;7.82;4.95;;;0.60;90.40;;;;;;4363099;32;20078;-57
2021/03/05 03:42:35;;;;;;;8.13;5.12;;;0.70;90.20;;;;;;4376482;32;20073;-58
2021/03/05 03:45:08;;;;;;;7.50;5.20;;;0.70;90.10;;;;;;4339007;32;20088;-57
2021/03/05 03:47:34;;;;;;;9.13;5.60;;;0.70;90.10;;;;;;4354925;32;20084;-59
2021/03/05 03:50:01;;;;;;;7.43;5.22;;;0.70;90.40;;;;;;4352062;32;20102;-59
2021/03/05 03:52:31;;;;;;;7.80;5.50;;;0.70;90.80;;;;;;4352787;32;20058;-58
2021/03/05 03:54:58;;;;;;;7.93;5.87;;;0.70;91.40;;;;;;4364396;32;20101;-59
2021/03/05 03:57:24;;;;;;;8.38;5.70;;;0.70;91.10;;;;;;4364412;32;20082;-59
2021/03/05 03:59:52;;;;;;;8.80;5.40;;;0.70;91.10;;;;;;4365667;32;20066;-59
2021/03/05 04:02:20;;;;;;;9.70;4.97;;;0.70;91.00;;;;;;4350977;32;20159;-58
2021/03/05 04:04:46;;;;;;;6.57;4.62;;;0.80;91.00;;;;;;4351176;32;20069;-58
2021/03/05 04:07:12;;;;;;;7.55;5.57;;;0.80;90.90;;;;;;4338700;32;20098;-60
2021/03/05 04:09:39;;;;;;;9.93;6.00;;;0.80;91.10;;;;;;4350454;32;20508;-59
2021/03/05 04:12:05;;;;;;;9.65;5.05;;;0.80;91.50;;;;;;4354916;32;20169;-58
2021/03/05 04:14:32;;;;;;;7.45;5.40;;;0.70;91.30;;;;;;4365701;32;20089;-59
2021/03/05 04:16:59;;;;;;;8.20;5.37;;;0.70;91.50;;;;;;4365546;32;20490;-58
2021/03/05 04:19:25;;;;;;;8.48;5.50;;;0.70;99.90;;;;;;4375138;32;20082;-58
2021/03/05 04:21:52;;;;;;;8.35;5.55;;;0.70;99.90;;;;;;4365321;32;20150;-58
2021/03/05 04:24:20;;;;;;;7.90;5.28;;;0.70;99.90;;;;;;4342093;32;20174;-57
2021/03/05 04:26:47;;;;;;;8.55;5.15;;;0.70;91.50;;;;;;4327097;32;20511;-58
2021/03/05 04:29:13;;;;;;;9.48;5.78;;;0.70;91.60;;;;;;4375266;32;20100;-59
2021/03/05 04:31:39;;;;;;;8.48;5.10;;;0.70;91.70;;;;;;4375153;32;20081;-59
2021/03/05 04:34:06;;;;;;;6.97;4.85;;;0.70;91.70;;;;;;4375565;32;20057;-61
2021/03/05 04:36:32;;;;;;;8.93;5.72;;;0.80;92.00;;;;;;4391639;32;20070;-57
2021/03/05 04:38:58;;;;;;;8.63;4.90;;;0.80;91.60;;;;;;4365503;32;20186;-58
2021/03/05 04:41:25;;;;;;;10.20;5.20;;;0.80;91.50;;;;;;4365151;32;20079;-59
2021/03/05 04:43:51;;;;;;;7.12;4.75;;;0.90;91.20;;;;;;4389869;32;20069;-58
2021/03/05 04:46:17;;;;;;;7.90;4.95;;;0.90;91.40;;;;;;4391538;32;20081;-59
2021/03/05 04:48:43;;;;;;;9.52;5.50;;;0.90;91.40;;;;;;4378708;32;20077;-59
2021/03/05 04:51:09;;;;;;;9.63;5.18;;;0.80;91.20;;;;;;4374774;32;20586;-58
2021/03/05 04:53:35;;;;;;;6.90;4.55;;;0.90;91.40;;;;;;4375663;32;20058;-57
2021/03/05 04:56:02;;;;;;;8.57;5.95;;;0.90;91.70;;;;;;4362533;32;20085;-59
2021/03/05 04:58:28;;;;;;;8.40;5.95;;;0.80;91.70;;;;;;4338094;32;20076;-59
2021/03/05 05:00:54;;;;;;;10.65;5.50;;;0.90;91.80;;;;;;4375410;32;20146;-58
2021/03/05 05:03:20;;;;;;;8.07;5.40;;;0.90;92.30;;;;;;4376583;32;20078;-59
2021/03/05 05:05:46;;;;;;;7.82;5.28;;;0.90;92.00;;;;;;4382802;32;20077;-57
2021/03/05 05:08:13;;;;;;;8.82;5.57;;;0.90;92.10;;;;;;4355698;32;20215;-61
2021/03/05 05:10:39;;;;;;;9.88;6.10;;;0.90;92.20;;;;;;4381849;32;20073;-60
2021/03/05 05:13:06;;;;;;;10.15;5.57;;;0.90;92.50;;;;;;4374252;32;20153;-59
2021/03/05 05:15:32;;;;;;;9.02;5.32;;;0.80;92.50;;;;;;4379131;32;20079;-60
2021/03/05 05:17:59;;;;;;;10.43;5.72;;;0.80;92.90;;;;;;4356778;32;20074;-59
2021/03/05 05:20:25;;;;;;;9.13;5.78;;;0.80;93.10;;;;;;4349499;32;20500;-59
2021/03/05 05:22:51;;;;;;;6.22;4.10;;;0.70;93.60;;;;;;4373540;32;20097;-58
2021/03/05 05:25:18;;;;;;;4.00;2.80;;;0.60;92.90;;;;;;4382089;32;20145;-59
2021/03/05 05:27:44;;;;;;;7.72;4.15;;;-0.20;92.30;;;;;;4378845;32;20163;-59
2021/03/05 05:30:11;;;;;;;5.03;3.80;;;-0.50;92.70;;;;;;4345405;32;20054;-58
2021/03/05 05:32:37;;;;;;;5.35;3.50;;;-0.70;92.50;;;;;;4351491;32;20186;-59
2021/03/05 05:35:06;;;;;;;5.82;3.10;;;-0.70;92.80;;;;;;4364181;32;20059;-60
2021/03/05 05:37:33;;;;;;;3.97;2.90;;;-0.60;92.10;;;;;;4371449;32;20464;-60
2021/03/05 05:39:59;;;;;;;4.65;3.15;;;-0.70;92.30;;;;;;4359606;32;20089;-62
2021/03/05 05:42:25;;;;;;;2.60;2.25;;;-0.70;92.10;;;;;;4353341;32;20078;-60
2021/03/05 05:44:52;;;;;;;2.95;1.92;;;-0.80;91.90;;;;;;4352574;32;20059;-60
2021/03/05 05:47:19;;;;;;;3.42;1.70;;;-0.80;92.10;;;;;;4370631;32;20065;-60
2021/03/05 05:49:45;;;;;;;2.25;1.62;;;-0.90;91.80;;;;;;4366411;32;20101;-60
2021/03/05 05:52:28;;;;;;;1.95;1.30;;;-0.80;92.10;;;;;;4371177;32;20093;-59
2021/03/05 05:54:54;;;;;;;3.67;1.65;;;-0.80;91.70;;;;;;4355455;32;20151;-58
2021/03/05 05:57:22;;;;;;;3.37;2.10;;;-0.80;91.10;;;;;;4350511;32;20657;-59
2021/03/05 05:59:48;;;;;;;2.80;1.83;;;-0.80;91.10;;;;;;4367512;32;20093;-59
2021/03/05 06:02:15;;;;;;;2.62;1.67;;;-0.70;91.30;;;;;;4372959;32;20074;-59
2021/03/05 06:04:41;;;;;;;3.20;2.08;;;-0.90;91.30;;;;;;4352861;32;20086;-59
2021/03/05 06:07:07;;;;;;;2.78;1.80;;;-1.00;91.10;;;;;;4370902;32;20086;-59
2021/03/05 06:09:33;;;;;;;3.45;1.65;;;-0.70;91.00;;;;;;4358212;32;20165;-59
2021/03/05 06:12:13;;;;;;;2.78;1.80;;;-0.80;90.70;;;;;;4362569;32;20512;-58
2021/03/05 06:14:43;;;;;;;2.95;1.37;;;-0.90;90.70;;;;;;4372017;32;20069;-58
2021/03/05 06:17:10;;;;;;;2.95;1.85;;;-0.90;90.60;;;;;;4365425;32;20066;-58
2021/03/05 06:19:36;;;;;;;2.47;1.42;;;-0.80;90.30;;;;;;4353975;32;20072;-58
2021/03/05 06:22:04;;;;;;;4.55;2.03;;;-1.00;90.20;;;;;;4362762;32;20142;-59
2021/03/05 06:24:42;;;;;;;2.58;1.60;;;-0.90;90.40;;;;;;4367765;32;20149;-59
2021/03/05 06:27:08;;;;;;;4.10;1.70;;;-1.00;90.60;;;;;;4362487;32;20145;-59
2021/03/05 06:29:49;;;;;;;3.85;1.92;;;-0.90;90.10;;;;;;4373899;32;20524;-57
2021/03/05 06:32:17;;;;;;;2.92;1.75;;;-0.90;90.00;;;;;;4346390;32;20073;-58
2021/03/05 06:34:50;;;;;;;2.70;1.65;;;-1.10;89.90;;;;;;4353522;32;20183;-59
2021/03/05 06:37:20;;;;;;;2.85;1.60;;;-0.90;89.60;;;;;;4384906;32;20645;-59
2021/03/05 06:40:02;;;;;;;3.80;2.05;;;-0.90;89.40;;;;;;4378960;32;20081;-61
2021/03/05 06:42:28;;;;;;;3.87;2.22;;;-0.90;89.30;;;;;;4343697;32;20075;-60
2021/03/05 06:44:54;;;;;;;2.15;1.40;;;-1.10;89.30;;;;;;4387044;32;20122;-59
2021/03/05 06:47:22;;;;;;;3.47;1.65;;;-1.10;89.70;;;;;;4348916;32;20501;-61
2021/03/05 06:49:49;;;;;;;2.72;1.87;;;-1.00;89.70;;;;;;4366682;32;20552;-60
2021/03/05 06:52:21;;;;;;;3.55;1.75;;;-1.10;90.00;;;;;;4348226;32;20073;-59
2021/03/05 06:54:49;;;;;;;1.65;1.42;;;-1.10;89.30;;;;;;4362874;32;20141;-58
2021/03/05 06:57:16;;;;;;;3.65;2.33;;;-1.10;89.10;;;;;;4356998;32;20070;-59
2021/03/05 06:59:46;;;;;;;4.57;2.70;;;-1.00;89.30;;;;;;4360693;32;20508;-59
2021/03/05 07:02:16;;;;;;;1.30;1.20;;;-1.00;89.50;;;;;;4346520;32;20571;-59
2021/03/05 07:04:43;;;;;;;3.08;2.10;;;-1.20;89.20;;;;;;4368858;32;20078;-60
2021/03/05 07:07:11;;;;;;;2.87;1.50;;;-0.90;89.00;;;;;;4381456;32;20075;-58
2021/03/05 07:09:38;;;;;;;6.60;3.70;;;-1.00;89.30;;;;;;4363752;32;20121;-58
2021/03/05 07:12:16;;;;;;;7.97;4.03;;;-0.80;90.00;;;;;;4380199;32;20085;-58
2021/03/05 07:14:46;;;;;;;6.20;4.00;;;-0.80;89.10;;;;;;4361076;32;20504;-58
2021/03/05 07:17:13;;;;;;;3.10;2.47;;;-0.80;88.70;;;;;;4388931;32;20070;-58
2021/03/05 07:19:39;;;;;;;3.60;2.00;;;-0.80;87.90;;;;;;4357591;32;20090;-57
2021/03/05 07:22:07;;;;;;;3.47;2.10;;;-0.80;87.20;;;;;;4395310;32;20058;-60
2021/03/05 07:24:38;;;;;;;4.15;2.22;;;-0.80;88.60;;;;;;4367146;32;20089;-58
2021/03/05 07:27:08;;;;;;;1.70;1.60;;;-0.80;86.40;;;;;;4373172;32;20101;-60
2021/03/05 07:29:37;;;;;;;3.53;2.00;;;-0.50;86.90;;;;;;4371850;32;20088;-59
2021/03/05 07:32:39;;;;;;;2.45;2.00;;;-0.50;86.10;;;;;;4368404;32;20082;-64
2021/03/05 07:35:27;;;;;;;1.42;0.70;;;-0.60;85.50;;;;;;4366573;32;20063;-59
2021/03/05 07:38:01;;;;;;;2.65;1.30;;;-0.80;84.50;;;;;;4379494;32;20070;-59
2021/03/05 07:40:28;;;;;;;2.67;1.52;;;-0.50;84.70;;;;;;4364663;32;20567;-60
2021/03/05 07:42:56;;;;;;;2.35;1.60;;;-1.00;85.50;;;;;;4356075;32;20082;-58
2021/03/05 07:45:22;;;;;;;2.20;1.55;;;-0.70;85.10;;;;;;4369151;32;20171;-59
2021/03/05 07:47:50;;;;;;;2.55;1.45;;;-0.80;85.70;;;;;;4367863;32;20162;-58
2021/03/05 07:50:20;;;;;;;2.03;1.52;;;-0.70;84.50;;;;;;4354844;32;20077;-61
2021/03/05 07:52:47;;;;;;;4.25;2.22;;;-0.80;84.80;;;;;;4372663;32;20076;-62
2021/03/05 07:55:14;;;;;;;4.18;1.83;;;-0.70;84.40;;;;;;4336116;32;20519;-59
2021/03/05 07:57:45;;;;;;;1.73;1.33;;;-0.80;83.70;;;;;;4369968;32;20074;-59
2021/03/05 08:00:16;;;;;;;2.08;1.62;;;-0.90;84.50;;;;;;4376165;32;20162;-61
2021/03/05 08:02:59;;;;;;;4.20;1.80;;;-0.80;83.70;;;;;;4371820;32;20171;-59
2021/03/05 08:05:48;;;;;;;2.22;1.20;;;-0.90;83.40;;;;;;4350993;32;20098;-59
2021/03/05 08:08:18;;;;;;;1.40;1.30;;;-0.80;83.90;;;;;;4364345;32;20063;-58
2021/03/05 08:10:55;;;;;;;4.53;1.55;;;-0.80;83.80;;;;;;4375163;32;20175;-58
2021/03/05 08:13:48;;;;;;;2.75;2.03;;;-0.70;83.30;;;;;;4351558;32;20058;-61
2021/03/05 08:16:30;;;;;;;2.37;1.90;;;-0.40;82.40;;;;;;4364496;32;20093;-60
2021/03/05 08:19:05;;;;;;;3.15;2.00;;;-0.70;81.40;;;;;;4362449;32;20073;-60
2021/03/05 08:21:51;;;;;;;1.12;1.08;;;-0.50;82.50;;;;;;4362666;32;20078;-57
2021/03/05 08:24:25;;;;;;;2.28;1.50;;;-0.60;82.70;;;;;;4387382;32;20073;-57
2021/03/05 08:27:07;;;;;;;1.62;1.37;;;-0.40;81.40;;;;;;4356806;32;20062;-60
2021/03/05 08:30:11;;;;;;;4.05;1.83;;;-0.50;80.60;;;;;;4377570;32;20092;-57
2021/03/05 08:32:53;;;;;;;1.42;1.20;;;-0.40;80.00;;;;;;4379108;32;20082;-57
2021/03/05 08:35:40;;;;;;;2.78;1.40;;;-0.60;79.60;;;;;;4364750;32;20464;-58
2021/03/05 08:38:21;;;;;;;0.82;0.62;;;-0.30;79.00;;;;;;4383515;32;20078;-57
2021/03/05 08:40:52;;;;;;;1.17;1.08;;;-0.60;78.40;;;;;;4357878;32;20074;-57
2021/03/05 08:43:27;;;;;;;2.22;1.40;;;-0.40;78.80;;;;;;4350609;32;20464;-57
2021/03/05 08:46:07;;;;;;;1.03;0.80;;;-0.40;78.50;;;;;;4378432;32;20496;-57
2021/03/05 08:48:39;;;;;;;1.80;1.48;;;-0.30;79.10;;;;;;4347658;32;20085;-59
2021/03/05 08:51:20;;;;;;;2.08;1.62;;;-0.10;77.30;;;;;;4344170;32;20129;-57
2021/03/05 08:53:56;;;;;;;1.50;1.23;;;-0.10;79.00;;;;;;4363730;32;20050;-58
2021/03/05 08:56:25;;;;;;;3.67;1.77;;;-0.10;76.70;;;;;;4338896;32;20145;-57
2021/03/05 08:59:11;;;;;;;1.67;1.40;;;-0.20;78.60;;;;;;4351049;32;20120;-56
2021/03/05 09:01:39;;;;;;;2.62;1.80;;;-0.60;78.50;;;;;;4339351;32;20054;-56
2021/03/05 09:04:15;;;;;;;3.20;1.83;;;-0.50;79.60;;;;;;4363161;32;20460;-57
2021/03/05 09:06:54;;;;;;;2.10;1.70;;;-0.30;78.50;;;;;;4374011;32;20155;-57
2021/03/05 09:09:28;;;;;;;1.27;1.17;;;-0.10;78.90;;;;;;4363199;32;20163;-57
2021/03/05 09:12:25;;;;;;;3.58;2.10;;;-0.30;76.20;;;;;;4363405;32;20070;-57
2021/03/05 09:15:02;;;;;;;3.70;2.37;;;0.10;77.40;;;;;;4354934;32;20155;-58
2021/03/05 09:17:28;;;;;;;3.85;2.03;;;-0.40;78.20;;;;;;4364054;32;20464;-57
2021/03/05 09:19:55;;;;;;;3.05;2.20;;;-0.10;78.30;;;;;;4338275;32;20058;-57
2021/03/05 09:22:24;;;;;;;3.20;1.50;;;-0.20;78.70;;;;;;4338487;32;20078;-56
2021/03/05 09:25:09;;;;;;;1.17;0.98;;;-0.20;78.50;;;;;;4363368;32;20080;-57
2021/03/05 09:27:42;;;;;;;1.55;1.02;;;-0.50;76.90;;;;;;4373879;32;20069;-57
2021/03/05 09:30:21;;;;;;;2.67;1.30;;;-0.70;77.20;;;;;;4341655;32;20081;-57
2021/03/05 09:32:50;;;;;;;2.75;1.40;;;-0.70;78.90;;;;;;4362083;32;20526;-59
2021/03/05 09:35:24;;;;;;;1.37;1.20;;;-0.70;77.90;;;;;;4367763;32;20140;-57
2021/03/05 09:37:50;;;;;;;2.65;1.08;;;-0.50;77.00;;;;;;4360502;32;20105;-56
2021/03/05 09:40:31;;;;;;;2.95;1.70;;;-0.40;75.70;;;;;;3830087;37;20070;-58
2021/03/05 09:43:01;;;;;;;3.58;1.48;;;-0.30;75.70;;;;;;4374765;32;20097;-56
2021/03/05 09:45:42;;;;;;;2.00;1.37;;;-0.10;76.40;;;;;;4391554;32;20104;-57
2021/03/05 09:48:32;;;;;;;1.70;1.48;;;0.30;75.00;;;;;;4376946;32;20070;-57
2021/03/05 09:51:03;;;;;;;1.70;1.05;;;0.50;71.60;;;;;;4372399;32;20105;-57
2021/03/05 09:53:39;;;;;;;2.30;1.62;;;0.20;72.80;;;;;;4383163;32;20070;-58
2021/03/05 09:56:09;;;;;;;1.00;0.75;;;0.40;72.20;;;;;;4370927;32;20093;-58
2021/03/05 09:59:02;;;;;;;1.58;0.90;;;-0.20;72.20;;;;;;4375283;32;20058;-58
2021/03/05 10:01:33;;;;;;;0.80;0.77;;;-0.10;71.10;;;;;;4389854;32;20090;-59
2021/03/05 10:04:01;;;;;;;3.22;1.33;;;0.40;70.50;;;;;;4374859;32;20089;-57
2021/03/05 10:06:29;;;;;;;1.73;1.20;;;0.20;71.40;;;;;;4350155;32;20654;-56
2021/03/05 10:09:12;;;;;;;1.90;1.30;;;0.20;72.70;;;;;;4375058;32;20104;-57
2021/03/05 10:11:39;;;;;;;2.30;1.40;;;0.60;71.10;;;;;;4385819;32;20650;-56
2021/03/05 10:14:09;;;;;;;2.60;1.15;;;0.50;69.70;;;;;;4382549;32;20069;-58
2021/03/05 10:16:37;;;;;;;4.97;1.65;;;0.10;72.00;;;;;;4374235;32;20066;-59
2021/03/05 10:19:14;;;;;;;1.15;0.90;;;0.60;71.20;;;;;;4391721;32;20065;-58
2021/03/05 10:21:52;;;;;;;1.10;1.00;;;0.30;69.60;;;;;;4371383;32;20073;-58
2021/03/05 10:24:28;;;;;;;1.65;1.30;;;-0.10;72.00;;;;;;4373934;32;20162;-59
2021/03/05 10:27:12;;;;;;;1.60;1.37;;;0.10;71.80;;;;;;4384074;32;20066;-58
2021/03/05 10:29:44;;;;;;;1.62;1.20;;;0.50;70.90;;;;;;4375111;32;20073;-57
2021/03/05 10:32:28;;;;;;;1.80;1.10;;;0.00;71.30;;;;;;4356526;32;20437;-56
2021/03/05 10:35:12;;;;;;;2.28;1.50;;;-0.20;71.00;;;;;;4382843;32;20088;-58
2021/03/05 10:37:39;;;;;;;2.90;1.65;;;-0.30;71.60;;;;;;4378888;32;20066;-58
2021/03/05 10:40:07;;;;;;;2.20;1.50;;;-0.30;71.00;;;;;;4393757;32;20116;-63
2021/03/05 10:42:34;;;;;;;3.10;1.55;;;0.10;70.40;;;;;;4393856;32;20073;-60
2021/03/05 10:45:00;;;;;;;2.45;1.52;;;0.50;69.70;;;;;;4381476;32;20160;-58
2021/03/05 10:47:26;;;;;;;3.37;1.87;;;0.60;66.10;;;;;;4375034;32;20472;-59
2021/03/05 10:49:53;;;;;;;1.60;1.10;;;-0.20;68.00;;;;;;4384137;32;20165;-58
2021/03/05 10:52:23;;;;;;;1.37;1.20;;;-0.20;69.30;;;;;;4363234;32;20092;-60
2021/03/05 10:54:49;;;;;;;2.70;1.60;;;0.10;68.40;;;;;;4349395;32;20109;-62
2021/03/05 10:57:17;;;;;;;2.55;1.70;;;0.10;67.10;;;;;;4367271;32;20059;-58
2021/03/05 10:59:49;;;;;;;2.45;1.50;;;0.30;68.10;;;;;;4363778;32;20073;-57
2021/03/05 11:02:16;;;;;;;3.37;1.40;;;0.20;67.20;;;;;;4364851;32;20077;-58
2021/03/05 11:04:42;;;;;;;2.05;1.55;;;0.00;67.90;;;;;;4365139;32;20106;-59
2021/03/05 11:08:33;;;;;;;1.70;1.60;;;0.00;67.00;;;;;;3842372;37;20416;-58
2021/03/05 11:10:59;;;;;;;1.40;0.90;;;0.10;66.60;;;;;;4401867;32;20079;-59
2021/03/05 11:13:25;;;;;;;2.62;1.70;;;-0.10;65.70;;;;;;4399624;32;20099;-58
2021/03/05 11:15:52;;;;;;;3.83;1.80;;;0.40;65.30;;;;;;4395803;32;20066;-60
2021/03/05 11:18:18;;;;;;;1.45;1.20;;;0.20;65.60;;;;;;4410848;32;20054;-60
2021/03/05 11:20:44;;;;;;;2.55;1.52;;;-0.20;64.70;;;;;;4397467;32;20072;-61
2021/03/05 11:23:10;;;;;;;1.00;0.90;;;0.10;65.10;;;;;;4380460;32;20113;-57
2021/03/05 11:25:37;;;;;;;1.50;1.33;;;0.30;63.70;;;;;;4403976;32;20089;-57
2021/03/05 11:28:04;;;;;;;0.93;0.93;;;-0.10;64.30;;;;;;4409798;32;20076;-60
2021/03/05 11:30:31;;;;;;;2.00;1.33;;;0.40;63.80;;;;;;4369724;32;20081;-59
2021/03/05 11:32:57;;;;;;;1.83;1.15;;;0.30;62.60;;;;;;4383878;32;20157;-60
2021/03/05 11:35:24;;;;;;;1.67;1.00;;;0.40;62.30;;;;;;4386702;32;20090;-60
2021/03/05 11:37:50;;;;;;;1.87;1.17;;;0.30;62.20;;;;;;4377012;32;20061;-59
2021/03/05 11:40:17;;;;;;;1.17;0.90;;;-0.20;61.90;;;;;;4380583;32;20165;-59
2021/03/05 11:42:43;;;;;;;2.10;1.37;;;-0.30;63.20;;;;;;4384928;32;20061;-60
2021/03/05 11:45:10;;;;;;;2.08;1.60;;;-0.30;64.00;;;;;;4381915;32;20113;-60
2021/03/05 11:47:36;;;;;;;2.45;1.70;;;-0.40;63.90;;;;;;4392549;32;20207;-62
2021/03/05 11:50:06;;;;;;;3.50;1.77;;;0.10;64.20;;;;;;4376553;32;20101;-61
2021/03/05 11:52:32;;;;;;;3.10;1.90;;;0.00;63.40;;;;;;4386469;32;20186;-63
2021/03/05 11:55:00;;;;;;;3.35;2.10;;;-0.10;62.80;;;;;;4388730;32;20176;-60
2021/03/05 11:57:27;;;;;;;3.03;1.60;;;-0.10;63.00;;;;;;4388229;32;20528;-60
2021/03/05 11:59:53;;;;;;;3.08;1.77;;;-0.10;62.10;;;;;;4368987;32;20066;-62
2021/03/05 12:02:19;;;;;;;2.78;1.60;;;-0.30;62.90;;;;;;4389988;32;20085;-60
2021/03/05 12:04:45;;;;;;;3.45;2.40;;;-0.20;61.80;;;;;;4400500;32;20496;-60
2021/03/05 12:07:11;;;;;;;3.20;1.80;;;0.10;61.00;;;;;;4400948;32;20472;-60
2021/03/05 12:09:38;;;;;;;2.08;1.70;;;0.10;61.20;;;;;;4400826;32;20513;-60
2021/03/05 12:12:05;;;;;;;3.00;2.10;;;0.10;61.00;;;;;;4400448;32;20081;-60
2021/03/05 12:14:31;;;;;;;3.05;1.98;;;0.00;61.00;;;;;;4385702;32;20545;-61
2021/03/05 12:16:58;;;;;;;3.92;2.33;;;-0.20;61.20;;;;;;4393036;32;20109;-65
2021/03/05 12:19:24;;;;;;;3.65;2.10;;;0.00;61.70;;;;;;4371769;32;20078;-59
2021/03/05 12:21:50;;;;;;;3.87;2.50;;;0.20;62.10;;;;;;4380489;32;20062;-59
2021/03/05 12:24:17;;;;;;;5.25;2.58;;;-0.10;62.00;;;;;;4353916;32;20097;-59
2021/03/05 12:26:44;;;;;;;3.72;2.22;;;0.10;61.00;;;;;;4367236;32;20138;-60
2021/03/05 12:29:10;;;;;;;3.65;1.42;;;0.20;62.90;;;;;;4386398;32;20078;-59
2021/03/05 12:31:36;;;;;;;3.53;1.80;;;-0.20;60.00;;;;;;4393062;32;20073;-59
2021/03/05 12:34:03;;;;;;;1.92;1.33;;;-0.20;60.80;;;;;;4386516;32;20077;-59
2021/03/05 12:36:30;;;;;;;3.08;1.40;;;0.00;61.20;;;;;;4381939;32;20085;-59
2021/03/05 12:38:57;;;;;;;1.98;1.70;;;-0.20;60.40;;;;;;4365794;32;20081;-59
2021/03/05 12:41:23;;;;;;;4.35;2.37;;;-0.10;60.70;;;;;;4389173;32;20068;-59
2021/03/05 12:43:49;;;;;;;2.28;1.52;;;-0.10;61.50;;;;;;4389227;32;20538;-59
2021/03/05 12:46:15;;;;;;;1.48;1.37;;;0.00;62.80;;;;;;4376198;32;20526;-60
2021/03/05 12:48:41;;;;;;;4.65;1.67;;;0.20;61.90;;;;;;4380434;32;20089;-59
2021/03/05 12:51:08;;;;;;;3.53;1.80;;;0.30;62.30;;;;;;4363947;32;20065;-59
2021/03/05 12:53:34;;;;;;;3.12;1.60;;;0.30;61.80;;;;;;4376555;32;20062;-59
2021/03/05 12:56:00;;;;;;;2.67;1.80;;;0.40;62.40;;;;;;4376645;32;20074;-58
2021/03/05 12:58:26;;;;;;;1.87;1.40;;;0.00;60.30;;;;;;4387589;32;20112;-59
2021/03/05 13:00:52;;;;;;;2.00;1.80;;;0.00;61.20;;;;;;4377334;32;20074;-59
2021/03/05 13:03:19;;;;;;;2.58;1.20;;;-0.20;61.60;;;;;;4375573;32;20156;-60
2021/03/05 13:05:45;;;;;;;2.65;1.73;;;-0.20;62.10;;;;;;4372469;32;20189;-58
2021/03/05 13:08:12;;;;;;;3.22;2.10;;;-0.40;60.80;;;;;;4385977;32;20129;-59
2021/03/05 13:10:38;;;;;;;2.78;2.00;;;-0.60;62.10;;;;;;4363922;32;20088;-60